createdAt,value
2022-08-17T00:03:42.377Z,99.90
2022-08-17T00:08:05.175Z,99.90
2022-08-17T00:12:43.688Z,99.90
2022-08-17T00:17:06.734Z,99.90
2022-08-17T00:22:30.842Z,99.90
2022-08-17T00:26:13.675Z,99.90
2022-08-17T00:30:51.017Z,99.90
2022-08-17T00:35:22.455Z,99.90
2022-08-17T00:39:44.899Z,99.90
2022-08-17T00:44:07.355Z,99.90
2022-08-17T00:48:33.019Z,99.90
2022-08-17T00:52:57.714Z,99.90
2022-08-17T00:57:35.414Z,99.90
2022-08-17T01:01:57.975Z,99.90
2022-08-17T01:06:23.214Z,99.90
2022-08-17T01:10:59.865Z,99.90
2022-08-17T01:15:25.586Z,99.90
2022-08-17T01:19:48.114Z,99.90
2022-08-17T01:24:11.134Z,99.90
2022-08-17T01:28:54.926Z,99.90
2022-08-17T01:33:17.935Z,99.90
2022-08-17T01:37:43.056Z,99.90
2022-08-17T01:42:51.468Z,99.90
2022-08-17T01:47:13.754Z,99.90
2022-08-17T01:51:36.234Z,99.90
2022-08-17T01:56:11.095Z,99.90
2022-08-17T02:00:54.458Z,99.90
2022-08-17T02:05:18.728Z,99.90
2022-08-17T02:09:41.254Z,99.90
2022-08-17T02:14:07.515Z,99.90
2022-08-17T02:18:30.474Z,99.90
2022-08-17T02:22:52.838Z,99.90
2022-08-17T02:27:14.990Z,99.90
2022-08-17T02:31:38.095Z,99.90
2022-08-17T02:36:00.735Z,99.90
2022-08-17T02:40:35.726Z,99.90
2022-08-17T02:44:58.694Z,99.90
2022-08-17T02:49:20.715Z,99.90
2022-08-17T02:53:43.494Z,99.90
2022-08-17T02:58:06.674Z,99.90
2022-08-17T03:02:29.014Z,99.90
2022-08-17T03:06:51.393Z,99.90
2022-08-17T03:11:13.736Z,99.90
2022-08-17T03:15:36.663Z,99.90
2022-08-17T03:20:03.855Z,99.90
2022-08-17T03:24:28.913Z,99.90
2022-08-17T03:28:52.134Z,99.90
2022-08-17T03:33:14.535Z,99.90
2022-08-17T03:37:37.215Z,99.90
2022-08-17T03:42:09.384Z,99.90
2022-08-17T03:47:10.655Z,99.90
2022-08-17T03:51:51.466Z,99.90
2022-08-17T03:56:32.635Z,99.90
2022-08-17T04:00:55.894Z,99.90
2022-08-17T04:05:18.315Z,99.90
2022-08-17T04:09:40.894Z,99.90
2022-08-17T04:14:05.255Z,99.90
2022-08-17T04:18:27.694Z,99.90
2022-08-17T04:23:12.806Z,99.90
2022-08-17T04:27:35.132Z,99.90
2022-08-17T04:31:58.454Z,99.90
2022-08-17T04:36:21.767Z,99.90
2022-08-17T04:41:03.274Z,99.90
2022-08-17T04:45:25.627Z,99.90
2022-08-17T04:49:54.696Z,99.90
2022-08-17T04:54:22.859Z,99.90
2022-08-17T04:58:49.906Z,99.90
2022-08-17T05:03:13.395Z,99.90
2022-08-17T05:07:35.635Z,99.90
2022-08-17T05:12:02.675Z,98.20
2022-08-17T05:16:27.776Z,95.90
2022-08-17T05:20:50.476Z,92.10
2022-08-17T05:25:14.906Z,87.30
2022-08-17T05:29:37.315Z,79.10
2022-08-17T05:34:00.175Z,73.00
2022-08-17T05:38:24.635Z,70.50
2022-08-17T05:42:47.435Z,73.00
2022-08-17T05:47:09.898Z,76.70
2022-08-17T05:51:35.407Z,74.30
2022-08-17T05:56:29.492Z,68.50
2022-08-17T06:01:51.734Z,62.80
2022-08-17T06:06:32.775Z,57.60
2022-08-17T06:11:33.115Z,54.10
2022-08-17T06:16:28.192Z,53.80
2022-08-17T06:21:03.232Z,52.00
2022-08-17T06:25:40.636Z,51.30
2022-08-17T06:30:21.534Z,51.80
2022-08-17T06:34:46.196Z,52.00
2022-08-17T06:39:36.187Z,51.00
2022-08-17T06:44:42.306Z,50.00
2022-08-17T06:49:40.936Z,48.40
2022-08-17T06:54:45.955Z,47.70
2022-08-17T06:59:13.648Z,45.30
2022-08-17T07:03:47.915Z,43.40
2022-08-17T07:08:29.962Z,41.90
2022-08-17T07:12:58.916Z,41.90
2022-08-17T07:17:46.976Z,40.10
2022-08-17T07:23:00.684Z,39.50
2022-08-17T07:27:27.936Z,40.20
2022-08-17T07:31:50.835Z,39.30
2022-08-17T07:36:29.979Z,37.50
2022-08-17T07:41:01.415Z,35.60
2022-08-17T07:45:56.275Z,33.50
2022-08-17T07:50:29.855Z,32.30
2022-08-17T07:54:52.436Z,32.80
2022-08-17T07:59:33.548Z,32.10
2022-08-17T08:03:56.383Z,33.20
2022-08-17T08:08:43.956Z,32.70
2022-08-17T08:13:26.166Z,32.50
2022-08-17T08:18:00.244Z,31.60
2022-08-17T08:22:35.922Z,31.70
2022-08-17T08:27:04.376Z,31.60
2022-08-17T08:31:49.474Z,30.60
2022-08-17T08:37:16.562Z,30.50
2022-08-17T08:41:59.211Z,30.00
2022-08-17T08:46:45.510Z,29.60
2022-08-17T08:51:37.596Z,29.30
2022-08-17T08:57:11.861Z,29.00
2022-08-17T09:01:41.398Z,28.70
2022-08-17T09:06:33.572Z,28.30
2022-08-17T09:12:01.938Z,28.40
2022-08-17T09:16:37.736Z,28.20
2022-08-17T09:21:23.040Z,29.10
2022-08-17T09:25:55.996Z,29.80
2022-08-17T09:30:19.876Z,27.60
2022-08-17T09:34:53.896Z,27.30
2022-08-17T09:39:58.039Z,27.30
2022-08-17T09:44:40.257Z,26.70
2022-08-17T09:49:40.316Z,26.30
2022-08-17T09:54:35.199Z,26.20
2022-08-17T09:59:17.312Z,26.70
2022-08-17T10:04:22.113Z,27.30
2022-08-17T10:08:52.803Z,27.30
2022-08-17T10:13:53.109Z,27.90
2022-08-17T10:19:03.071Z,27.40
2022-08-17T10:23:48.596Z,27.30
2022-08-17T10:28:20.046Z,26.80
2022-08-17T10:32:48.537Z,26.90
2022-08-17T10:37:20.138Z,26.50
2022-08-17T10:41:47.068Z,28.10
2022-08-17T10:46:30.340Z,28.40
2022-08-17T10:50:57.875Z,28.30
2022-08-17T10:55:20.975Z,27.60
2022-08-17T10:59:47.445Z,27.60
2022-08-17T11:04:18.555Z,28.10
2022-08-17T11:09:53.655Z,27.20
2022-08-17T11:14:37.947Z,27.20
2022-08-17T11:19:45.875Z,28.00
2022-08-17T11:24:28.726Z,27.30
2022-08-17T11:28:56.534Z,28.60
2022-08-17T11:33:36.633Z,30.10
2022-08-17T11:38:28.429Z,32.30
2022-08-17T11:43:25.474Z,34.30
2022-08-17T11:48:28.326Z,37.60
2022-08-17T11:52:51.455Z,38.50
2022-08-17T11:57:32.074Z,39.40
2022-08-17T12:01:57.413Z,39.80
2022-08-17T12:06:50.614Z,41.10
2022-08-17T12:12:11.175Z,41.10
2022-08-17T12:16:10.222Z,41.40
2022-08-17T12:20:42.914Z,40.90
2022-08-17T12:25:09.168Z,41.80
2022-08-17T12:29:35.938Z,43.40
2022-08-17T12:34:02.393Z,42.00
2022-08-17T12:38:32.702Z,42.00
2022-08-17T12:43:07.133Z,41.20
2022-08-17T12:47:31.734Z,41.40
2022-08-17T12:52:24.937Z,42.00
2022-08-17T12:56:48.154Z,41.00
2022-08-17T13:01:17.439Z,41.40
2022-08-17T13:05:43.926Z,40.10
2022-08-17T13:10:06.640Z,38.60
2022-08-17T13:14:29.714Z,37.30
2022-08-17T13:19:13.065Z,37.50
2022-08-17T13:23:36.275Z,38.20
2022-08-17T13:27:59.635Z,37.60
2022-08-17T13:32:43.705Z,38.90
2022-08-17T13:37:29.784Z,38.50
2022-08-17T13:41:56.345Z,38.50
2022-08-17T13:46:24.202Z,38.50
2022-08-17T13:50:53.022Z,38.30
2022-08-17T13:55:22.326Z,38.00
2022-08-17T13:59:55.594Z,38.90
2022-08-17T14:04:28.185Z,38.90
2022-08-17T14:08:53.337Z,39.20
2022-08-17T14:13:15.665Z,40.00
2022-08-17T14:17:39.222Z,40.80
2022-08-17T14:22:02.186Z,39.20
2022-08-17T14:26:24.850Z,39.40
2022-08-17T14:30:46.977Z,39.70
2022-08-17T14:35:13.047Z,39.40
2022-08-17T14:39:35.345Z,39.40
2022-08-17T14:43:57.826Z,40.40
2022-08-17T14:48:20.145Z,39.70
2022-08-17T14:52:43.026Z,39.40
2022-08-17T14:57:22.764Z,40.00
2022-08-17T15:01:48.365Z,40.20
2022-08-17T15:06:12.266Z,40.90
2022-08-17T15:10:35.807Z,41.60
2022-08-17T15:15:00.887Z,41.90
2022-08-17T15:19:23.205Z,42.60
2022-08-17T15:23:45.688Z,42.70
2022-08-17T15:28:08.500Z,42.90
2022-08-17T15:32:35.347Z,42.90
2022-08-17T15:36:57.766Z,42.90
2022-08-17T15:41:20.408Z,42.90
2022-08-17T15:45:43.926Z,42.80
2022-08-17T15:50:09.106Z,42.80
2022-08-17T15:54:34.577Z,43.50
2022-08-17T15:58:59.046Z,44.80
2022-08-17T16:03:58.198Z,43.70
2022-08-17T16:08:04.629Z,43.80
2022-08-17T16:12:26.966Z,44.80
2022-08-17T16:16:49.148Z,44.40
2022-08-17T16:21:27.429Z,44.30
2022-08-17T16:25:53.471Z,45.00
2022-08-17T16:30:18.193Z,44.90
2022-08-17T16:34:42.366Z,45.10
2022-08-17T16:39:05.327Z,45.70
2022-08-17T16:43:28.485Z,46.00
2022-08-17T16:47:51.749Z,45.60
2022-08-17T16:52:15.385Z,46.20
2022-08-17T16:56:55.566Z,47.50
2022-08-17T17:01:18.097Z,48.20
2022-08-17T17:06:03.792Z,48.20
2022-08-17T17:10:51.066Z,49.40
2022-08-17T17:15:17.605Z,50.30
2022-08-17T17:19:57.842Z,49.90
2022-08-17T17:24:55.826Z,50.50
2022-08-17T17:29:48.798Z,51.00
2022-08-17T17:34:16.261Z,51.40
2022-08-17T17:38:46.066Z,52.40
2022-08-17T17:43:37.049Z,52.60
2022-08-17T17:47:53.945Z,53.30
2022-08-17T17:53:09.263Z,53.80
2022-08-17T17:57:45.367Z,54.60
2022-08-17T18:02:51.213Z,55.00
2022-08-17T18:07:25.646Z,55.20
2022-08-17T18:12:23.164Z,55.70
2022-08-17T18:16:46.810Z,55.90
2022-08-17T18:21:21.119Z,56.40
2022-08-17T18:25:47.967Z,56.90
2022-08-17T18:30:14.717Z,57.70
2022-08-17T18:34:47.218Z,57.90
2022-08-17T18:39:26.579Z,57.40
2022-08-17T18:44:22.449Z,58.10
2022-08-17T18:49:07.108Z,58.30
2022-08-17T18:53:38.906Z,59.40
2022-08-17T18:58:20.365Z,60.40
2022-08-17T19:02:53.276Z,61.30
2022-08-17T19:07:24.743Z,63.30
2022-08-17T19:11:47.486Z,65.10
2022-08-17T19:16:18.473Z,64.00
2022-08-17T19:21:23.445Z,65.30
2022-08-17T19:25:50.766Z,65.90
2022-08-17T19:30:16.145Z,67.20
2022-08-17T19:34:42.686Z,66.00
2022-08-17T19:39:41.464Z,66.50
2022-08-17T19:44:41.432Z,68.20
2022-08-17T19:50:01.291Z,69.60
2022-08-17T19:54:38.325Z,68.40
2022-08-17T19:59:16.220Z,68.10
2022-08-17T20:04:10.487Z,70.00
2022-08-17T20:08:39.468Z,72.70
2022-08-17T20:13:08.427Z,74.40
2022-08-17T20:17:43.260Z,76.60
2022-08-17T20:22:23.786Z,78.40
2022-08-17T20:26:59.915Z,80.60
2022-08-17T20:32:08.029Z,81.60
2022-08-17T20:36:37.158Z,84.30
2022-08-17T20:41:01.377Z,88.10
2022-08-17T20:45:26.640Z,90.70
2022-08-17T20:50:06.171Z,92.30
2022-08-17T20:54:44.788Z,93.20
2022-08-17T20:59:07.296Z,93.40
2022-08-17T21:03:32.259Z,94.20
2022-08-17T21:08:18.785Z,95.80
2022-08-17T21:12:55.146Z,96.60
2022-08-17T21:18:01.246Z,98.00
2022-08-17T21:22:46.806Z,99.10
2022-08-17T21:27:53.546Z,99.40
2022-08-17T21:32:24.293Z,99.90
2022-08-17T21:36:49.268Z,99.90
2022-08-17T21:41:29.167Z,99.90
2022-08-17T21:46:21.119Z,99.90
2022-08-17T21:51:09.157Z,99.90
2022-08-17T21:55:34.386Z,99.90
2022-08-17T22:00:05.647Z,99.90
2022-08-17T22:04:38.207Z,99.90
2022-08-17T22:09:09.947Z,99.90
2022-08-17T22:13:33.218Z,99.90
2022-08-17T22:17:56.116Z,99.90
2022-08-17T22:22:32.420Z,99.90
2022-08-17T22:27:13.367Z,99.90
2022-08-17T22:31:57.287Z,99.90
2022-08-17T22:36:39.100Z,99.90
2022-08-17T22:41:32.214Z,99.90
2022-08-17T22:46:00.192Z,99.90
2022-08-17T22:50:30.627Z,99.90
2022-08-17T22:55:40.628Z,99.90
2022-08-17T23:00:04.978Z,99.90
2022-08-17T23:04:37.369Z,99.90
2022-08-17T23:09:03.316Z,99.90
2022-08-17T23:13:26.750Z,99.90
2022-08-17T23:17:49.046Z,99.90
2022-08-17T23:22:12.151Z,99.90
2022-08-17T23:26:41.068Z,99.90
2022-08-17T23:31:05.802Z,99.90
2022-08-17T23:35:39.258Z,99.90
2022-08-17T23:40:06.208Z,99.90
2022-08-17T23:44:29.148Z,99.90
2022-08-17T23:48:55.548Z,99.90
2022-08-17T23:53:18.100Z,99.90
2022-08-17T23:57:41.670Z,99.90
